Time;durP1;ratioP1;P1;durP2;ratioP2;P2;SDS_P1;SDS_P2;PMS_P1;PMS_P2;Temp;Humidity;BMP_temperature;BMP_pressure;BME280_temperature;BME280_humidity;BME280_pressure;Samples;Min_cycle;Max_cycle;Signal;HPM_P1;HPM_P2
2022/09/14 00:02:59;;;;;;;11.77;4.93;;;;;;;;;;5092903;28;20697;-76
2022/09/14 00:06:05;;;;;;;13.00;5.20;;;;;;;;;;5093323;28;20050;-76
2022/09/14 00:09:13;;;;;;;8.73;5.07;;;;;;;;;;5092230;28;20058;-75
2022/09/14 00:12:18;;;;;;;12.00;5.05;;;;;;;;;;5093396;28;20036;-77
2022/09/14 00:15:23;;;;;;;9.73;4.57;;;;;;;;;;5093013;28;20499;-77
2022/09/14 00:18:27;;;;;;;10.93;4.82;;;;;;;;;;5093034;28;20373;-77
2022/09/14 00:21:33;;;;;;;12.45;5.28;;;;;;;;;;5092143;28;20044;-77
2022/09/14 00:24:37;;;;;;;10.90;5.32;;;;;;;;;;5092921;28;20066;-76
2022/09/14 00:27:41;;;;;;;13.93;4.38;;;;;;;;;;5092726;28;20044;-77
2022/09/14 00:30:46;;;;;;;7.45;4.28;;;;;;;;;;5093096;28;20051;-77
2022/09/14 00:33:51;;;;;;;9.93;4.28;;;;;;;;;;5091909;28;20273;-76
2022/09/14 00:36:55;;;;;;;13.10;4.13;;;;;;;;;;5092807;28;20475;-76
2022/09/14 00:39:59;;;;;;;14.48;4.15;;;;;;;;;;5092508;28;20413;-76
2022/09/14 00:43:09;;;;;;;10.52;3.05;;;;;;;;;;5091840;28;20036;-76
2022/09/14 00:46:14;;;;;;;8.75;3.67;;;;;;;;;;5091883;28;20040;-76
2022/09/14 00:49:20;;;;;;;9.05;3.88;;;;;;;;;;5093130;28;20329;-77
2022/09/14 00:52:27;;;;;;;8.68;4.00;;;;;;;;;;5092587;28;20040;-76
2022/09/14 00:55:32;;;;;;;11.23;4.20;;;;;;;;;;5091915;28;20040;-77
2022/09/14 00:58:37;;;;;;;7.88;4.10;;;;;;;;;;5092440;28;20048;-77
2022/09/14 01:01:41;;;;;;;8.13;4.75;;;;;;;;;;5091615;28;20036;-77
2022/09/14 01:04:46;;;;;;;16.00;4.90;;;;;;;;;;5092325;28;20136;-77
2022/09/14 01:08:09;;;;;;;11.90;4.35;;;;;;;;;;5091496;28;20036;-76
2022/09/14 01:11:16;;;;;;;11.23;4.60;;;;;;;;;;5092312;28;20040;-77
2022/09/14 01:14:40;;;;;;;16.20;5.85;;;;;;;;;;5091378;28;20375;-77
2022/09/14 01:17:44;;;;;;;11.50;5.57;;;;;;;;;;5091180;28;20403;-76
2022/09/14 01:20:52;;;;;;;12.25;4.97;;;;;;;;;;5079290;28;20044;-77
2022/09/14 01:24:11;;;;;;;11.85;5.20;;;;;;;;;;5092148;28;20480;-77
2022/09/14 01:27:28;;;;;;;12.95;5.78;;;;;;;;;;5090906;28;20063;-77
2022/09/14 01:30:33;;;;;;;9.25;4.97;;;;;;;;;;5092025;28;20032;-76
2022/09/14 01:33:41;;;;;;;9.57;5.38;;;;;;;;;;5091790;28;20040;-76
2022/09/14 01:36:50;;;;;;;14.30;5.80;;;;;;;;;;5091092;28;20480;-77
2022/09/14 01:39:57;;;;;;;13.80;6.05;;;;;;;;;;5090948;28;20457;-76
2022/09/14 01:43:09;;;;;;;12.80;5.97;;;;;;;;;;5091479;28;20029;-76
2022/09/14 01:46:24;;;;;;;14.48;6.60;;;;;;;;;;5091731;28;20052;-76
2022/09/14 01:49:34;;;;;;;13.95;6.55;;;;;;;;;;5091707;28;20044;-76
2022/09/14 01:52:47;;;;;;;12.40;6.32;;;;;;;;;;5090423;28;20039;-76
2022/09/14 01:55:55;;;;;;;15.25;6.30;;;;;;;;;;5091323;28;20043;-75
2022/09/14 01:59:03;;;;;;;14.57;6.47;;;;;;;;;;5091172;28;20059;-77
2022/09/14 02:02:13;;;;;;;19.00;6.65;;;;;;;;;;5091550;28;20045;-77
2022/09/14 02:05:35;;;;;;;13.55;6.30;;;;;;;;;;5091338;28;20051;-77
2022/09/14 02:08:40;;;;;;;14.90;6.20;;;;;;;;;;5090862;28;20051;-77
2022/09/14 02:11:44;;;;;;;10.88;6.22;;;;;;;;;;5090864;28;20412;-77
2022/09/14 02:14:50;;;;;;;11.43;5.57;;;;;;;;;;5091225;28;20048;-77
2022/09/14 02:17:55;;;;;;;19.58;6.47;;;;;;;;;;5091504;28;20051;-77
2022/09/14 02:21:02;;;;;;;10.85;5.30;;;;;;;;;;5078729;28;20415;-77
2022/09/14 02:24:07;;;;;;;11.20;5.78;;;;;;;;;;5092624;28;20391;-77
2022/09/14 02:27:12;;;;;;;12.63;6.15;;;;;;;;;;5097666;28;20055;-76
2022/09/14 02:30:16;;;;;;;10.18;5.78;;;;;;;;;;5097626;28;20036;-77
2022/09/14 02:33:29;;;;;;;12.68;6.22;;;;;;;;;;5096874;28;20048;-77
2022/09/14 02:36:43;;;;;;;13.85;6.00;;;;;;;;;;5096903;28;20051;-77
2022/09/14 02:39:56;;;;;;;15.05;6.10;;;;;;;;;;5097301;28;20048;-77
2022/09/14 02:43:19;;;;;;;14.48;6.75;;;;;;;;;;5097671;28;20045;-77
2022/09/14 02:46:23;;;;;;;13.27;6.15;;;;;;;;;;5096939;28;20044;-77
2022/09/14 02:49:42;;;;;;;12.45;6.65;;;;;;;;;;5097345;28;20032;-77
2022/09/14 02:53:19;;;;;;;14.68;6.80;;;;;;;;;;5097766;28;20036;-77
2022/09/14 02:56:25;;;;;;;14.20;5.90;;;;;;;;;;5090568;28;20035;-76
2022/09/14 02:59:29;;;;;;;15.10;6.43;;;;;;;;;;5097266;28;20048;-77
2022/09/14 03:02:33;;;;;;;16.20;6.85;;;;;;;;;;5097179;28;20043;-77
2022/09/14 03:05:38;;;;;;;16.45;6.75;;;;;;;;;;5097380;28;20044;-77
2022/09/14 03:08:43;;;;;;;23.60;7.38;;;;;;;;;;5096372;28;20032;-77
2022/09/14 03:11:48;;;;;;;16.95;7.13;;;;;;;;;;5097056;28;20040;-76
2022/09/14 03:14:52;;;;;;;14.95;7.05;;;;;;;;;;5097426;28;20043;-77
2022/09/14 03:17:57;;;;;;;14.07;6.55;;;;;;;;;;5097431;28;20055;-77
2022/09/14 03:21:03;;;;;;;8.60;6.32;;;;;;;;;;5097073;28;20509;-76
2022/09/14 03:24:07;;;;;;;12.85;5.22;;;;;;;;;;5097402;28;20040;-76
2022/09/14 03:27:12;;;;;;;10.25;5.13;;;;;;;;;;5097024;28;20504;-77
2022/09/14 03:30:17;;;;;;;12.60;4.63;;;;;;;;;;5096928;28;20039;-77
2022/09/14 03:33:22;;;;;;;14.15;4.65;;;;;;;;;;5096421;28;20388;-76
2022/09/14 03:36:27;;;;;;;9.77;3.90;;;;;;;;;;5094401;28;20032;-77
2022/09/14 03:39:31;;;;;;;10.13;4.13;;;;;;;;;;5093620;28;20044;-77
2022/09/14 03:42:36;;;;;;;12.85;4.32;;;;;;;;;;5093698;28;20032;-76
2022/09/14 03:45:41;;;;;;;7.57;4.18;;;;;;;;;;5094028;28;20044;-77
2022/09/14 03:48:45;;;;;;;8.82;4.65;;;;;;;;;;5093740;28;20032;-77
2022/09/14 03:51:50;;;;;;;13.00;5.15;;;;;;;;;;5093907;28;20036;-77
2022/09/14 03:54:54;;;;;;;14.00;5.82;;;;;;;;;;5092849;28;20039;-77
2022/09/14 03:57:59;;;;;;;12.85;6.32;;;;;;;;;;5093375;28;20056;-77
2022/09/14 04:01:08;;;;;;;18.05;6.43;;;;;;;;;;5093444;28;20511;-77
2022/09/14 04:04:12;;;;;;;11.60;6.32;;;;;;;;;;5093264;28;20495;-77
2022/09/14 04:07:17;;;;;;;13.80;6.68;;;;;;;;;;5092462;28;20044;-77
2022/09/14 04:10:22;;;;;;;16.77;6.85;;;;;;;;;;5092520;28;20044;-77
2022/09/14 04:13:26;;;;;;;18.75;7.30;;;;;;;;;;5093144;28;20039;-77
2022/09/14 04:16:31;;;;;;;14.60;7.20;;;;;;;;;;5093832;28;20594;-77
2022/09/14 04:19:37;;;;;;;17.98;6.43;;;;;;;;;;5092140;28;20065;-77
2022/09/14 04:22:42;;;;;;;18.17;5.75;;;;;;;;;;5092721;28;20028;-77
2022/09/14 04:25:47;;;;;;;14.35;5.80;;;;;;;;;;5092942;28;20036;-77
2022/09/14 04:28:52;;;;;;;16.30;5.57;;;;;;;;;;5093043;28;20040;-77
2022/09/14 04:31:56;;;;;;;13.30;5.60;;;;;;;;;;5093210;28;20044;-77
2022/09/14 04:35:01;;;;;;;17.73;5.55;;;;;;;;;;5092756;28;20042;-76
2022/09/14 04:38:05;;;;;;;21.50;5.93;;;;;;;;;;5092718;28;20048;-77
2022/09/14 04:41:19;;;;;;;16.55;5.10;;;;;;;;;;5091964;28;20108;-77
2022/09/14 04:44:23;;;;;;;17.15;5.38;;;;;;;;;;5092669;28;20308;-77
2022/09/14 04:47:28;;;;;;;17.85;5.78;;;;;;;;;;5090610;28;20059;-77
2022/09/14 04:50:32;;;;;;;14.02;6.10;;;;;;;;;;5092407;28;20040;-77
2022/09/14 04:53:40;;;;;;;11.45;5.82;;;;;;;;;;5092481;28;20504;-76
2022/09/14 04:56:45;;;;;;;17.90;6.43;;;;;;;;;;5092590;28;20040;-78
2022/09/14 04:59:49;;;;;;;15.07;6.10;;;;;;;;;;5091948;28;20056;-77
2022/09/14 05:02:53;;;;;;;13.40;6.03;;;;;;;;;;5092114;28;20036;-78
2022/09/14 05:06:01;;;;;;;18.02;6.22;;;;;;;;;;5092361;28;20039;-77
2022/09/14 05:09:07;;;;;;;13.98;6.22;;;;;;;;;;5091802;28;20045;-76
2022/09/14 05:12:12;;;;;;;24.50;6.57;;;;;;;;;;5090830;28;20051;-76
2022/09/14 05:15:16;;;;;;;17.90;7.22;;;;;;;;;;5091918;28;20028;-76
2022/09/14 05:18:21;;;;;;;20.30;7.50;;;;;;;;;;5091794;28;20040;-76
2022/09/14 05:21:25;;;;;;;37.83;10.55;;;;;;;;;;5091281;28;20032;-82
2022/09/14 05:24:30;;;;;;;52.55;12.70;;;;;;;;;;5091081;28;20409;-84
2022/09/14 05:27:34;;;;;;;26.40;8.55;;;;;;;;;;5090779;28;20062;-81
2022/09/14 05:30:39;;;;;;;26.48;7.53;;;;;;;;;;5092296;28;20059;-81
2022/09/14 05:33:44;;;;;;;20.48;7.40;;;;;;;;;;5092082;28;20036;-79
2022/09/14 05:36:48;;;;;;;17.75;9.48;;;;;;;;;;5091727;28;20043;-82
2022/09/14 05:39:53;;;;;;;19.42;7.93;;;;;;;;;;5091508;28;20404;-86
2022/09/14 05:42:57;;;;;;;23.33;8.07;;;;;;;;;;5091201;28;20036;-84
2022/09/14 05:46:05;;;;;;;20.02;7.35;;;;;;;;;;5090740;28;20032;-85
2022/09/14 05:49:09;;;;;;;15.35;6.05;;;;;;;;;;5091609;28;20033;-82
2022/09/14 05:52:13;;;;;;;16.13;6.40;;;;;;;;;;5091503;28;20032;-84
2022/09/14 05:55:17;;;;;;;14.93;6.97;;;;;;;;;;5091667;28;20035;-82
2022/09/14 05:58:22;;;;;;;13.23;6.40;;;;;;;;;;5092191;28;20059;-81
2022/09/14 06:01:28;;;;;;;16.55;6.82;;;;;;;;;;5091620;28;20060;-83
2022/09/14 06:04:32;;;;;;;19.08;6.30;;;;;;;;;;5091383;28;20044;-80
2022/09/14 06:07:37;;;;;;;12.65;4.93;;;;;;;;;;5091141;28;20036;-82
2022/09/14 06:10:41;;;;;;;14.13;5.25;;;;;;;;;;5091648;28;20046;-83
2022/09/14 06:13:46;;;;;;;8.65;4.53;;;;;;;;;;5092433;28;20040;-83
2022/09/14 06:16:50;;;;;;;11.90;4.80;;;;;;;;;;5092135;28;20036;-81
2022/09/14 06:19:54;;;;;;;12.38;4.72;;;;;;;;;;5090179;28;20052;-77
2022/09/14 06:22:59;;;;;;;24.83;6.20;;;;;;;;;;5091618;28;20044;-81
2022/09/14 06:26:04;;;;;;;9.00;4.80;;;;;;;;;;5091623;28;20459;-76
2022/09/14 06:29:08;;;;;;;11.85;4.70;;;;;;;;;;5092255;28;20487;-80
2022/09/14 06:32:12;;;;;;;13.70;4.80;;;;;;;;;;5090729;28;20047;-76
2022/09/14 06:35:17;;;;;;;17.60;4.80;;;;;;;;;;5089248;28;20491;-76
2022/09/14 06:38:21;;;;;;;12.15;4.07;;;;;;;;;;5090104;28;20036;-76
2022/09/14 06:41:31;;;;;;;11.85;4.82;;;;;;;;;;5090581;28;20039;-75
2022/09/14 06:44:35;;;;;;;18.45;5.53;;;;;;;;;;5090623;28;20498;-75
2022/09/14 06:47:40;;;;;;;15.40;5.10;;;;;;;;;;5090646;28;20043;-74
2022/09/14 06:50:44;;;;;;;14.93;5.68;;;;;;;;;;5091041;28;20047;-78
2022/09/14 06:53:49;;;;;;;21.23;5.82;;;;;;;;;;5089948;28;20043;-76
2022/09/14 06:56:53;;;;;;;17.75;5.72;;;;;;;;;;5090803;28;20512;-77
2022/09/14 06:59:58;;;;;;;19.08;6.78;;;;;;;;;;5090439;28;20044;-75
2022/09/14 07:03:02;;;;;;;13.80;5.25;;;;;;;;;;5090124;28;20036;-74
2022/09/14 07:06:09;;;;;;;19.27;5.05;;;;;;;;;;5090466;28;20472;-68
2022/09/14 07:09:14;;;;;;;10.57;4.90;;;;;;;;;;5090192;28;20059;-69
2022/09/14 07:12:19;;;;;;;12.35;5.18;;;;;;;;;;5092916;28;20274;-74
2022/09/14 07:15:23;;;;;;;12.75;4.10;;;;;;;;;;5094095;28;20036;-75
2022/09/14 07:18:31;;;;;;;12.52;4.47;;;;;;;;;;5094031;28;20044;-73
2022/09/14 07:21:35;;;;;;;12.50;4.38;;;;;;;;;;5094197;28;20040;-71
2022/09/14 07:24:40;;;;;;;12.57;3.85;;;;;;;;;;5094005;28;20653;-75
2022/09/14 07:27:44;;;;;;;13.95;4.30;;;;;;;;;;5093737;28;20542;-72
2022/09/14 07:30:48;;;;;;;11.23;3.90;;;;;;;;;;5093957;28;20507;-73
2022/09/14 07:33:55;;;;;;;12.18;4.85;;;;;;;;;;5093527;28;20040;-71
2022/09/14 07:37:00;;;;;;;17.90;4.50;;;;;;;;;;5094137;28;20043;-74
2022/09/14 07:40:04;;;;;;;7.03;3.30;;;;;;;;;;5093579;28;20409;-75
2022/09/14 07:43:08;;;;;;;16.83;3.45;;;;;;;;;;5092595;28;20040;-76
2022/09/14 07:46:13;;;;;;;8.15;3.00;;;;;;;;;;5092025;28;20451;-74
2022/09/14 07:49:17;;;;;;;11.73;3.35;;;;;;;;;;5091962;28;20044;-76
2022/09/14 07:52:22;;;;;;;14.35;3.15;;;;;;;;;;5091985;28;20138;-76
2022/09/14 07:55:26;;;;;;;12.88;3.20;;;;;;;;;;5092056;28;20036;-75
2022/09/14 07:58:31;;;;;;;11.30;3.38;;;;;;;;;;5091832;28;20044;-74
2022/09/14 08:01:35;;;;;;;6.70;3.22;;;;;;;;;;5093388;28;20044;-75
2022/09/14 08:04:39;;;;;;;14.32;3.65;;;;;;;;;;5092799;28;20048;-75
2022/09/14 08:07:43;;;;;;;12.48;3.50;;;;;;;;;;5093064;28;20043;-73
2022/09/14 08:10:48;;;;;;;16.10;3.90;;;;;;;;;;5093049;28;20028;-77
2022/09/14 08:13:53;;;;;;;12.02;4.18;;;;;;;;;;5092934;28;20044;-73
2022/09/14 08:16:59;;;;;;;17.25;4.68;;;;;;;;;;5091700;28;20048;-76
2022/09/14 08:20:04;;;;;;;9.52;3.50;;;;;;;;;;5092153;28;20044;-73
2022/09/14 08:23:08;;;;;;;13.82;3.50;;;;;;;;;;5092606;28;20040;-75
2022/09/14 08:26:13;;;;;;;12.88;3.53;;;;;;;;;;5093253;28;20387;-73
2022/09/14 08:29:18;;;;;;;9.55;3.60;;;;;;;;;;5092619;28;20036;-74
2022/09/14 08:32:22;;;;;;;21.65;5.75;;;;;;;;;;5092439;28;20040;-72
2022/09/14 08:35:27;;;;;;;16.55;5.32;;;;;;;;;;5092841;28;20040;-74
2022/09/14 08:38:31;;;;;;;11.30;4.43;;;;;;;;;;5091644;28;20468;-75
2022/09/14 08:41:56;;;;;;;9.43;3.80;;;;;;;;;;5092331;28;20050;-73
2022/09/14 08:45:03;;;;;;;14.70;4.40;;;;;;;;;;5092949;28;20032;-76
2022/09/14 08:48:11;;;;;;;11.07;4.03;;;;;;;;;;5092483;28;20047;-74
2022/09/14 08:51:17;;;;;;;13.63;4.07;;;;;;;;;;5092282;28;20046;-75
2022/09/14 08:54:21;;;;;;;10.85;4.15;;;;;;;;;;5092408;28;20039;-72
2022/09/14 08:57:33;;;;;;;16.80;5.32;;;;;;;;;;5092502;28;20452;-74
2022/09/14 09:00:47;;;;;;;7.85;3.60;;;;;;;;;;5092052;28;20503;-75
2022/09/14 09:04:10;;;;;;;9.55;3.22;;;;;;;;;;5092162;28;20044;-75
2022/09/14 09:07:20;;;;;;;6.63;2.40;;;;;;;;;;5092095;28;20040;-72
2022/09/14 09:10:25;;;;;;;7.50;2.47;;;;;;;;;;5091527;28;20040;-72
2022/09/14 09:13:32;;;;;;;17.88;3.00;;;;;;;;;;5092364;28;20299;-75
2022/09/14 09:16:36;;;;;;;8.43;2.58;;;;;;;;;;5092111;28;20039;-72
2022/09/14 09:19:54;;;;;;;11.10;2.03;;;;;;;;;;5091629;28;20044;-75
2022/09/14 09:23:18;;;;;;;4.35;1.95;;;;;;;;;;5092003;28;20048;-73
2022/09/14 09:26:25;;;;;;;5.93;2.08;;;;;;;;;;5091348;28;20357;-71
2022/09/14 09:29:30;;;;;;;5.60;2.17;;;;;;;;;;5090342;28;20048;-72
2022/09/14 09:32:46;;;;;;;8.52;2.95;;;;;;;;;;5089733;28;20040;-74
2022/09/14 09:36:15;;;;;;;7.55;2.97;;;;;;;;;;5090908;28;20377;-74
2022/09/14 09:39:19;;;;;;;10.15;3.47;;;;;;;;;;5090957;28;20044;-73
2022/09/14 09:42:25;;;;;;;7.72;2.67;;;;;;;;;;5090684;28;20036;-73
2022/09/14 09:45:49;;;;;;;8.65;3.22;;;;;;;;;;5090422;28;20365;-75
2022/09/14 09:48:53;;;;;;;5.20;2.55;;;;;;;;;;5091421;28;20035;-71
2022/09/14 09:52:08;;;;;;;8.35;2.25;;;;;;;;;;5091040;28;20036;-73
2022/09/14 09:55:19;;;;;;;5.43;2.47;;;;;;;;;;5090493;28;20036;-74
2022/09/14 09:58:27;;;;;;;9.13;2.40;;;;;;;;;;5091516;28;20044;-77
2022/09/14 10:01:34;;;;;;;9.18;2.78;;;;;;;;;;5090996;28;20044;-78
2022/09/14 10:04:55;;;;;;;10.55;2.15;;;;;;;;;;5091171;28;20032;-76
2022/09/14 10:08:01;;;;;;;5.07;2.13;;;;;;;;;;5091001;28;20459;-73
2022/09/14 10:11:05;;;;;;;4.20;1.88;;;;;;;;;;5091058;28;20032;-76
2022/09/14 10:14:30;;;;;;;5.45;1.73;;;;;;;;;;5091367;28;20048;-76
2022/09/14 10:17:34;;;;;;;6.55;1.73;;;;;;;;;;5090110;28;20036;-72
2022/09/14 10:20:38;;;;;;;4.35;1.67;;;;;;;;;;5091133;28;20044;-73
2022/09/14 10:23:43;;;;;;;4.50;2.17;;;;;;;;;;5091400;28;20040;-72
2022/09/14 10:26:47;;;;;;;6.32;1.98;;;;;;;;;;5090007;28;20044;-72
2022/09/14 10:29:54;;;;;;;11.43;2.10;;;;;;;;;;5090978;28;20040;-75
2022/09/14 10:33:03;;;;;;;3.88;1.88;;;;;;;;;;5090882;28;20044;-75
2022/09/14 10:36:26;;;;;;;5.20;2.25;;;;;;;;;;5091413;28;20457;-76
2022/09/14 10:39:34;;;;;;;4.22;1.80;;;;;;;;;;5090030;28;20143;-81
2022/09/14 10:42:57;;;;;;;5.07;1.85;;;;;;;;;;5090489;28;20032;-81
2022/09/14 10:46:04;;;;;;;6.38;1.55;;;;;;;;;;5093648;28;20036;-79
2022/09/14 10:49:27;;;;;;;4.82;1.67;;;;;;;;;;5095129;28;20476;-80
2022/09/14 10:53:00;;;;;;;4.13;1.60;;;;;;;;;;5097030;28;20104;-84
2022/09/14 10:56:09;;;;;;;9.93;2.08;;;;;;;;;;5094580;28;20036;-80
2022/09/14 10:59:21;;;;;;;4.68;1.77;;;;;;;;;;5093646;28;20040;-81
2022/09/14 11:02:55;;;;;;;5.68;1.80;;;;;;;;;;5094861;28;20032;-79
2022/09/14 11:06:15;;;;;;;4.32;1.70;;;;;;;;;;5096931;28;20059;-80
2022/09/14 11:09:26;;;;;;;9.00;2.25;;;;;;;;;;5094010;28;20277;-80
2022/09/14 11:12:33;;;;;;;10.32;1.80;;;;;;;;;;5094435;28;20385;-80
2022/09/14 11:15:56;;;;;;;10.27;2.72;;;;;;;;;;5094233;28;20043;-78
2022/09/14 11:19:09;;;;;;;6.60;2.13;;;;;;;;;;5093334;28;20040;-78
2022/09/14 11:22:29;;;;;;;7.38;1.80;;;;;;;;;;5093870;28;20032;-83
2022/09/14 11:25:41;;;;;;;9.88;1.90;;;;;;;;;;5094685;28;20032;-84
2022/09/14 11:28:52;;;;;;;6.35;1.35;;;;;;;;;;5093635;28;20048;-83
2022/09/14 11:31:59;;;;;;;5.93;1.65;;;;;;;;;;5093093;28;20036;-82
2022/09/14 11:35:24;;;;;;;5.57;1.70;;;;;;;;;;5093957;28;20455;-83
2022/09/14 11:38:29;;;;;;;8.80;1.50;;;;;;;;;;5094113;28;20492;-84
2022/09/14 11:41:41;;;;;;;3.03;1.45;;;;;;;;;;5094089;28;20044;-84
2022/09/14 11:44:46;;;;;;;3.33;1.80;;;;;;;;;;5093561;28;20036;-84
2022/09/14 11:47:55;;;;;;;3.70;1.20;;;;;;;;;;5093630;28;20040;-84
2022/09/14 11:51:09;;;;;;;8.00;1.50;;;;;;;;;;5093090;28;20036;-83
2022/09/14 11:54:15;;;;;;;9.68;1.90;;;;;;;;;;5093571;28;20044;-79
2022/09/14 11:57:27;;;;;;;10.23;1.80;;;;;;;;;;5093168;28;20036;-81
2022/09/14 12:00:50;;;;;;;3.40;1.20;;;;;;;;;;5093104;28;20040;-79
2022/09/14 12:04:00;;;;;;;5.65;1.25;;;;;;;;;;5092924;28;20040;-78
2022/09/14 12:07:04;;;;;;;8.48;1.38;;;;;;;;;;5092946;28;20107;-85
2022/09/14 12:10:15;;;;;;;4.85;1.35;;;;;;;;;;5093482;28;20040;-84
2022/09/14 12:13:19;;;;;;;;;;;;;;;;;;5091913;28;20055;-84
2022/09/14 12:16:23;;;;;;;1.77;1.33;;;;;;;;;;5093670;28;19915;-84
2022/09/14 12:19:27;;;;;;;5.60;1.63;;;;;;;;;;5093485;28;20040;-84
2022/09/14 12:22:34;;;;;;;9.55;2.42;;;;;;;;;;5092933;28;20372;-85
2022/09/14 12:25:39;;;;;;;5.45;1.83;;;;;;;;;;5093114;28;20036;-76
2022/09/14 12:28:49;;;;;;;4.25;1.80;;;;;;;;;;5091851;28;20503;-75
2022/09/14 12:31:53;;;;;;;6.05;1.55;;;;;;;;;;5093325;28;20040;-75
2022/09/14 12:35:16;;;;;;;7.75;1.40;;;;;;;;;;5092988;28;20036;-84
2022/09/14 12:38:38;;;;;;;11.70;1.70;;;;;;;;;;5092749;28;20040;-80
2022/09/14 12:41:58;;;;;;;7.90;2.10;;;;;;;;;;5092889;28;20036;-76
2022/09/14 12:45:22;;;;;;;4.65;1.58;;;;;;;;;;5092715;28;20036;-78
2022/09/14 12:48:44;;;;;;;10.00;1.50;;;;;;;;;;5092955;28;20044;-74
2022/09/14 12:51:49;;;;;;;5.68;1.67;;;;;;;;;;5092735;28;20039;-76
2022/09/14 12:54:59;;;;;;;8.77;1.90;;;;;;;;;;5091650;28;20040;-74
2022/09/14 12:58:17;;;;;;;4.50;1.20;;;;;;;;;;5092773;28;20175;-80
2022/09/14 13:01:40;;;;;;;4.20;1.73;;;;;;;;;;5092645;28;20040;-75
2022/09/14 13:04:46;;;;;;;6.70;1.80;;;;;;;;;;5091630;28;20565;-73
2022/09/14 13:07:51;;;;;;;10.82;2.05;;;;;;;;;;5092620;28;20032;-74
2022/09/14 13:10:55;;;;;;;11.05;1.90;;;;;;;;;;5092023;28;20202;-72
2022/09/14 13:14:00;;;;;;;2.47;1.23;;;;;;;;;;5091418;28;20044;-75
2022/09/14 13:17:04;;;;;;;8.55;1.60;;;;;;;;;;5092332;28;20040;-72
2022/09/14 13:20:17;;;;;;;6.32;1.58;;;;;;;;;;5092638;28;20056;-77
2022/09/14 13:23:21;;;;;;;10.95;1.40;;;;;;;;;;5092468;28;20040;-75
2022/09/14 13:26:28;;;;;;;11.20;1.58;;;;;;;;;;5091415;28;20399;-86
2022/09/14 13:29:32;;;;;;;8.65;1.85;;;;;;;;;;5091574;28;20539;-82
2022/09/14 13:32:45;;;;;;;5.72;1.20;;;;;;;;;;5091895;28;20040;-75
2022/09/14 13:35:54;;;;;;;5.90;1.60;;;;;;;;;;5090813;28;20523;-76
2022/09/14 13:39:00;;;;;;;5.45;1.42;;;;;;;;;;5091925;28;20040;-74
2022/09/14 13:42:04;;;;;;;6.95;1.58;;;;;;;;;;5091290;28;20032;-74
2022/09/14 13:45:12;;;;;;;4.82;1.20;;;;;;;;;;5091576;28;20032;-75
2022/09/14 13:48:17;;;;;;;4.57;1.38;;;;;;;;;;5091740;28;20392;-79
2022/09/14 13:51:23;;;;;;;7.10;2.90;;;;;;;;;;5092156;28;20036;-80
2022/09/14 13:54:28;;;;;;;17.67;2.05;;;;;;;;;;5090670;28;20028;-74
2022/09/14 13:57:33;;;;;;;5.13;1.20;;;;;;;;;;5092463;28;20043;-76
2022/09/14 14:00:49;;;;;;;3.15;1.00;;;;;;;;;;5091524;28;20044;-75
2022/09/14 14:03:53;;;;;;;6.55;1.15;;;;;;;;;;5090944;28;20040;-82
2022/09/14 14:07:03;;;;;;;6.07;1.52;;;;;;;;;;5090845;28;20040;-81
2022/09/14 14:10:21;;;;;;;7.50;1.73;;;;;;;;;;5091641;28;20040;-81
2022/09/14 14:13:26;;;;;;;3.38;0.85;;;;;;;;;;5091129;28;20032;-81
2022/09/14 14:16:31;;;;;;;4.35;1.00;;;;;;;;;;5089340;28;20036;-81
2022/09/14 14:19:35;;;;;;;3.95;1.30;;;;;;;;;;5086634;28;20044;-81
2022/09/14 14:22:40;;;;;;;3.25;0.95;;;;;;;;;;5087422;28;20044;-83
2022/09/14 14:25:46;;;;;;;3.55;1.00;;;;;;;;;;5087916;28;20125;-81
2022/09/14 14:28:50;;;;;;;2.20;0.98;;;;;;;;;;5089112;28;20381;-82
2022/09/14 14:31:55;;;;;;;4.43;1.05;;;;;;;;;;5090058;28;20036;-81
2022/09/14 14:35:03;;;;;;;6.40;1.20;;;;;;;;;;5090855;28;20380;-79
2022/09/14 14:38:08;;;;;;;2.47;0.90;;;;;;;;;;5088860;28;20381;-80
2022/09/14 14:41:14;;;;;;;5.25;1.27;;;;;;;;;;5088981;28;20381;-81
2022/09/14 14:44:23;;;;;;;6.25;2.33;;;;;;;;;;5089091;28;20032;-81
2022/09/14 14:47:28;;;;;;;12.32;2.33;;;;;;;;;;5089014;28;20044;-81
2022/09/14 14:50:34;;;;;;;6.45;1.15;;;;;;;;;;5088876;28;20161;-81
2022/09/14 14:53:38;;;;;;;7.72;2.28;;;;;;;;;;5091050;28;20492;-80
2022/09/14 14:56:47;;;;;;;9.45;4.85;;;;;;;;;;5090929;28;20040;-80
2022/09/14 14:59:51;;;;;;;4.43;1.40;;;;;;;;;;5090662;28;20373;-80
2022/09/14 15:02:56;;;;;;;11.48;1.63;;;;;;;;;;5090590;28;20040;-81
2022/09/14 15:06:10;;;;;;;4.28;1.10;;;;;;;;;;5090685;28;20055;-80
2022/09/14 15:09:15;;;;;;;5.93;1.30;;;;;;;;;;5090017;28;20040;-80
2022/09/14 15:12:19;;;;;;;5.53;1.65;;;;;;;;;;5089526;28;20381;-76
2022/09/14 15:15:25;;;;;;;5.07;1.40;;;;;;;;;;5090366;28;20028;-78
2022/09/14 15:18:29;;;;;;;6.15;1.20;;;;;;;;;;5090433;28;20032;-77
2022/09/14 15:21:33;;;;;;;6.20;1.45;;;;;;;;;;5090482;28;20491;-77
2022/09/14 15:24:38;;;;;;;19.13;1.95;;;;;;;;;;5090093;28;20028;-77
2022/09/14 15:27:42;;;;;;;3.92;1.30;;;;;;;;;;5089999;28;20827;-76
2022/09/14 15:30:46;;;;;;;8.10;2.00;;;;;;;;;;5090468;28;20365;-77
2022/09/14 15:33:50;;;;;;;4.70;1.10;;;;;;;;;;5093731;28;20040;-76
2022/09/14 15:36:56;;;;;;;8.32;1.85;;;;;;;;;;5093062;28;20032;-77
2022/09/14 15:40:00;;;;;;;5.75;1.85;;;;;;;;;;5094167;28;20052;-78
2022/09/14 15:43:05;;;;;;;3.70;1.50;;;;;;;;;;5093643;28;20043;-78
2022/09/14 15:46:09;;;;;;;10.43;1.60;;;;;;;;;;5092895;28;20040;-78
2022/09/14 15:49:18;;;;;;;4.10;1.20;;;;;;;;;;5092758;28;20046;-78
2022/09/14 15:52:22;;;;;;;4.28;1.45;;;;;;;;;;5091336;28;20040;-78
2022/09/14 15:55:27;;;;;;;8.35;1.42;;;;;;;;;;5093301;28;20036;-78
2022/09/14 15:58:31;;;;;;;2.72;1.13;;;;;;;;;;5093402;28;20044;-78
2022/09/14 16:01:36;;;;;;;4.20;2.60;;;;;;;;;;5092703;28;20051;-78
2022/09/14 16:04:40;;;;;;;4.78;1.70;;;;;;;;;;5093149;28;20032;-78
2022/09/14 16:07:45;;;;;;;7.15;2.28;;;;;;;;;;5093117;28;20373;-76
2022/09/14 16:10:56;;;;;;;4.40;2.15;;;;;;;;;;5093215;28;20421;-79
2022/09/14 16:14:01;;;;;;;3.58;1.33;;;;;;;;;;5092903;28;20479;-80
2022/09/14 16:17:07;;;;;;;8.63;1.98;;;;;;;;;;5092200;28;20032;-80
2022/09/14 16:20:11;;;;;;;5.30;1.55;;;;;;;;;;5093085;28;20044;-80
2022/09/14 16:23:16;;;;;;;9.20;1.48;;;;;;;;;;5093032;28;20036;-80
2022/09/14 16:26:24;;;;;;;10.25;1.58;;;;;;;;;;5092943;28;20040;-80
2022/09/14 16:29:28;;;;;;;4.65;1.27;;;;;;;;;;5092979;28;20056;-80
2022/09/14 16:32:33;;;;;;;6.47;2.10;;;;;;;;;;5092685;28;20036;-80
2022/09/14 16:35:37;;;;;;;8.63;1.98;;;;;;;;;;5093323;28;20048;-80
2022/09/14 16:38:42;;;;;;;9.90;2.40;;;;;;;;;;5092157;28;20040;-79
2022/09/14 16:41:46;;;;;;;10.93;2.10;;;;;;;;;;5092671;28;20044;-78
2022/09/14 16:44:51;;;;;;;10.18;1.77;;;;;;;;;;5092694;28;20060;-77
2022/09/14 16:47:55;;;;;;;5.18;1.45;;;;;;;;;;5092645;28;20036;-78
2022/09/14 16:51:03;;;;;;;5.63;1.70;;;;;;;;;;5091932;28;20040;-76
2022/09/14 16:54:08;;;;;;;12.13;2.05;;;;;;;;;;5091272;28;20036;-78
2022/09/14 16:57:12;;;;;;;14.68;2.45;;;;;;;;;;5091792;28;20058;-74
2022/09/14 17:00:17;;;;;;;10.68;3.85;;;;;;;;;;5092033;28;20067;-73
2022/09/14 17:03:21;;;;;;;8.02;1.83;;;;;;;;;;5091698;28;20124;-72
2022/09/14 17:06:27;;;;;;;8.75;2.00;;;;;;;;;;5091195;28;20143;-73
2022/09/14 17:09:31;;;;;;;4.50;2.10;;;;;;;;;;5092301;28;20036;-73
2022/09/14 17:12:36;;;;;;;7.20;2.30;;;;;;;;;;5091640;28;20044;-73
2022/09/14 17:15:40;;;;;;;14.93;3.08;;;;;;;;;;5091658;28;20385;-73
2022/09/14 17:18:47;;;;;;;9.88;2.20;;;;;;;;;;5091787;28;20039;-71
2022/09/14 17:21:52;;;;;;;6.05;2.03;;;;;;;;;;5091548;28;20491;-71
2022/09/14 17:24:56;;;;;;;7.28;1.90;;;;;;;;;;5091828;28;20036;-71
2022/09/14 17:28:00;;;;;;;16.70;2.60;;;;;;;;;;5091593;28;20357;-71
2022/09/14 17:31:06;;;;;;;10.20;2.78;;;;;;;;;;5090543;28;20040;-71
2022/09/14 17:34:12;;;;;;;12.60;3.00;;;;;;;;;;5091776;28;20100;-71
2022/09/14 17:37:16;;;;;;;7.38;2.33;;;;;;;;;;5091269;28;20032;-71
2022/09/14 17:40:20;;;;;;;10.98;2.70;;;;;;;;;;5091064;28;20496;-71
2022/09/14 17:43:24;;;;;;;9.15;2.70;;;;;;;;;;5090623;28;20031;-71
2022/09/14 17:46:29;;;;;;;9.32;2.38;;;;;;;;;;5091366;28;20062;-71
2022/09/14 17:49:33;;;;;;;7.65;2.65;;;;;;;;;;5091244;28;20040;-71
2022/09/14 17:52:38;;;;;;;12.75;2.58;;;;;;;;;;5091446;28;20032;-71
2022/09/14 17:55:42;;;;;;;14.43;3.05;;;;;;;;;;5090672;28;20044;-71
2022/09/14 17:58:48;;;;;;;14.73;3.10;;;;;;;;;;5091154;28;20028;-71
2022/09/14 18:01:52;;;;;;;8.23;2.33;;;;;;;;;;5089858;28;20047;-71
2022/09/14 18:04:56;;;;;;;6.30;2.33;;;;;;;;;;5091310;28;20040;-71
2022/09/14 18:08:01;;;;;;;12.23;3.08;;;;;;;;;;5090942;28;20044;-71
2022/09/14 18:11:06;;;;;;;19.50;3.22;;;;;;;;;;5091211;28;20047;-71
2022/09/14 18:14:12;;;;;;;15.75;3.40;;;;;;;;;;5090017;28;20042;-71
2022/09/14 18:17:16;;;;;;;15.48;3.10;;;;;;;;;;5090989;28;20032;-71
2022/09/14 18:20:20;;;;;;;9.27;2.78;;;;;;;;;;5090283;28;20052;-71
2022/09/14 18:23:25;;;;;;;12.55;3.42;;;;;;;;;;5091189;28;20032;-71
2022/09/14 18:26:29;;;;;;;8.10;2.47;;;;;;;;;;5090536;28;20040;-70
2022/09/14 18:29:33;;;;;;;8.40;2.90;;;;;;;;;;5090224;28;20480;-71
2022/09/14 18:32:38;;;;;;;14.35;3.63;;;;;;;;;;5089964;28;20036;-71
2022/09/14 18:35:42;;;;;;;21.27;4.30;;;;;;;;;;5090784;28;20028;-71